createdAt,value
2022-08-22T00:00:45.432Z,2.83
2022-08-22T00:02:41.430Z,1.95
2022-08-22T00:03:00.125Z,2.33
2022-08-22T00:03:00.779Z,2.40
2022-08-22T00:03:07.586Z,2.70
2022-08-22T00:03:08.939Z,3.38
2022-08-22T00:03:10.286Z,2.55
2022-08-22T00:03:50.278Z,2.28
2022-08-22T00:06:31.351Z,2.45
2022-08-22T00:09:16.402Z,2.30
2022-08-22T00:12:02.039Z,2.35
2022-08-22T00:17:04.708Z,2.17
2022-08-22T00:19:43.775Z,2.35
2022-08-22T00:22:29.619Z,2.33
2022-08-22T00:25:34.151Z,2.20
2022-08-22T00:28:11.558Z,2.30
2022-08-22T00:30:49.849Z,2.53
2022-08-22T00:33:39.443Z,1.77
2022-08-22T00:36:16.405Z,2.35
2022-08-22T00:38:54.615Z,2.35
2022-08-22T00:41:45.534Z,2.47
2022-08-22T00:44:30.781Z,2.45
2022-08-22T00:47:36.308Z,2.42
2022-08-22T00:50:26.348Z,2.50
2022-08-22T00:53:08.299Z,2.20
2022-08-22T00:55:52.619Z,2.42
2022-08-22T00:58:46.947Z,2.80
2022-08-22T01:01:19.806Z,2.53
2022-08-22T01:03:49.351Z,2.60
2022-08-22T01:06:49.426Z,2.13
2022-08-22T01:09:43.006Z,2.83
2022-08-22T01:12:44.777Z,2.70
2022-08-22T01:15:17.159Z,2.78
2022-08-22T01:17:47.079Z,2.50
2022-08-22T01:20:47.587Z,2.53
2022-08-22T01:23:51.802Z,2.70
2022-08-22T01:27:03.562Z,2.90
2022-08-22T01:29:36.242Z,3.33
2022-08-22T01:32:42.535Z,2.63
2022-08-22T01:35:21.172Z,3.05
2022-08-22T01:38:04.653Z,3.00
2022-08-22T01:40:53.315Z,3.38
2022-08-22T01:43:20.754Z,2.50
2022-08-22T01:46:42.810Z,2.80
2022-08-22T01:49:18.671Z,2.70
2022-08-22T01:51:51.499Z,2.58
2022-08-22T01:54:43.862Z,3.08
2022-08-22T01:57:12.060Z,2.30
2022-08-22T01:59:42.575Z,2.55
2022-08-22T02:02:31.029Z,3.45
2022-08-22T02:05:18.561Z,2.60
2022-08-22T02:07:53.158Z,3.13
2022-08-22T02:10:42.517Z,2.65
2022-08-22T02:13:17.738Z,2.55
2022-08-22T02:15:54.447Z,3.08
2022-08-22T02:18:29.448Z,3.03
2022-08-22T02:21:24.420Z,2.70
2022-08-22T02:23:59.734Z,3.00
2022-08-22T02:26:37.649Z,2.60
2022-08-22T02:29:14.123Z,3.55
2022-08-22T02:31:45.218Z,2.83
2022-08-22T02:34:26.834Z,2.83
2022-08-22T02:37:04.669Z,2.85
2022-08-22T02:39:58.134Z,2.90
2022-08-22T02:42:27.987Z,3.00
2022-08-22T02:45:00.522Z,3.00
2022-08-22T02:47:38.443Z,3.40
2022-08-22T02:50:30.447Z,3.25
2022-08-22T02:53:35.508Z,2.88
2022-08-22T02:56:21.081Z,3.17
2022-08-22T02:59:13.068Z,2.83
2022-08-22T03:01:43.799Z,2.90
2022-08-22T03:04:39.593Z,3.00
2022-08-22T03:07:21.211Z,2.53
2022-08-22T03:09:59.260Z,3.30
2022-08-22T03:12:41.748Z,3.10
2022-08-22T03:15:48.619Z,3.10
2022-08-22T03:18:35.121Z,3.40
2022-08-22T03:21:34.023Z,3.00
2022-08-22T03:24:16.266Z,3.65
2022-08-22T03:27:01.871Z,3.45
2022-08-22T03:29:38.377Z,3.13
2022-08-22T03:32:15.167Z,3.45
2022-08-22T03:35:03.623Z,3.63
2022-08-22T03:37:39.315Z,3.38
2022-08-22T03:41:03.475Z,2.72
2022-08-22T03:43:54.738Z,3.15
2022-08-22T03:46:21.460Z,3.42
2022-08-22T03:52:02.347Z,3.95
2022-08-22T03:54:50.111Z,2.72
2022-08-22T03:57:54.610Z,3.90
2022-08-22T04:00:48.675Z,2.85
2022-08-22T04:03:27.588Z,3.40
2022-08-22T04:06:30.428Z,3.45
2022-08-22T04:09:16.995Z,3.25
2022-08-22T04:15:08.356Z,3.28
2022-08-22T04:17:44.215Z,3.13
2022-08-22T04:20:47.406Z,3.60
2022-08-22T04:23:23.028Z,2.97
2022-08-22T04:25:59.341Z,3.20
2022-08-22T04:28:34.136Z,3.47
2022-08-22T04:31:12.097Z,3.28
2022-08-22T04:33:49.761Z,3.42
2022-08-22T04:36:23.195Z,3.88
2022-08-22T04:39:04.663Z,3.15
2022-08-22T04:41:46.736Z,3.88
2022-08-22T04:44:28.082Z,3.55
2022-08-22T04:47:24.293Z,3.72
2022-08-22T04:49:59.289Z,3.50
2022-08-22T04:52:57.502Z,3.50
2022-08-22T04:55:32.970Z,3.70
2022-08-22T04:58:26.489Z,3.35
2022-08-22T05:01:10.983Z,3.70
2022-08-22T05:03:44.805Z,3.60
2022-08-22T05:06:15.947Z,3.30
2022-08-22T05:08:45.957Z,3.70
2022-08-22T05:11:20.525Z,3.67
2022-08-22T05:13:57.821Z,3.75
2022-08-22T05:16:30.911Z,3.83
2022-08-22T05:21:40.298Z,3.75
2022-08-22T05:24:11.622Z,3.85
2022-08-22T05:26:47.379Z,3.38
2022-08-22T05:29:21.494Z,4.22
2022-08-22T05:31:56.440Z,4.05
2022-08-22T05:34:28.206Z,4.68
2022-08-22T05:37:14.327Z,3.63
2022-08-22T05:39:48.334Z,3.80
2022-08-22T05:42:25.527Z,3.92
2022-08-22T05:44:52.608Z,4.55
2022-08-22T05:47:23.427Z,4.40
2022-08-22T05:50:04.992Z,3.80
2022-08-22T05:52:59.049Z,4.07
2022-08-22T05:55:47.246Z,3.88
2022-08-22T05:58:19.972Z,4.15
2022-08-22T06:00:52.323Z,4.07
2022-08-22T06:03:32.174Z,4.07
2022-08-22T06:06:05.987Z,4.30
2022-08-22T06:08:38.702Z,4.57
2022-08-22T06:11:15.197Z,3.95
2022-08-22T06:13:48.681Z,3.72
2022-08-22T06:16:20.432Z,4.13
2022-08-22T06:18:50.296Z,4.10
2022-08-22T06:21:38.496Z,5.10
2022-08-22T06:24:09.804Z,4.60
2022-08-22T06:26:46.080Z,4.25
2022-08-22T06:29:40.867Z,4.20
2022-08-22T06:32:30.632Z,4.88
2022-08-22T06:35:13.989Z,4.75
2022-08-22T06:37:44.886Z,4.85
2022-08-22T06:40:14.501Z,5.00
2022-08-22T06:42:45.592Z,5.00
2022-08-22T06:45:22.975Z,4.50
2022-08-22T06:48:12.066Z,4.55
2022-08-22T06:50:42.653Z,4.53
2022-08-22T06:53:18.100Z,4.90
2022-08-22T06:55:56.724Z,4.97
2022-08-22T06:58:38.139Z,5.75
2022-08-22T07:01:18.059Z,4.80
2022-08-22T07:03:52.741Z,4.97
2022-08-22T07:06:42.484Z,4.60
2022-08-22T07:09:34.589Z,5.15
2022-08-22T07:12:24.108Z,5.07
2022-08-22T07:14:54.040Z,4.82
2022-08-22T07:17:32.714Z,5.10
2022-08-22T07:20:06.576Z,5.15
2022-08-22T07:22:36.563Z,4.78
2022-08-22T07:25:08.939Z,4.88
2022-08-22T07:28:14.558Z,5.10
2022-08-22T07:30:57.863Z,5.15
2022-08-22T07:33:49.529Z,5.28
2022-08-22T07:36:31.609Z,4.78
2022-08-22T07:39:25.948Z,5.57
2022-08-22T07:42:26.503Z,5.15
2022-08-22T07:45:11.174Z,5.88
2022-08-22T07:48:08.105Z,4.68
2022-08-22T07:50:51.040Z,4.93
2022-08-22T07:53:27.855Z,4.72
2022-08-22T07:55:56.156Z,4.78
2022-08-22T07:58:26.269Z,4.90
2022-08-22T08:00:54.087Z,4.70
2022-08-22T08:03:27.640Z,5.07
2022-08-22T08:05:55.283Z,5.05
2022-08-22T08:08:33.073Z,5.43
2022-08-22T08:11:00.876Z,4.93
2022-08-22T08:13:36.368Z,5.28
2022-08-22T08:16:06.473Z,5.32
2022-08-22T08:18:35.996Z,4.88
2022-08-22T08:21:07.315Z,5.63
2022-08-22T08:23:44.976Z,6.07
2022-08-22T08:26:20.747Z,5.63
2022-08-22T08:28:50.828Z,6.05
2022-08-22T08:31:20.632Z,5.20
2022-08-22T08:33:50.453Z,5.30
2022-08-22T08:36:32.368Z,5.43
2022-08-22T08:39:10.165Z,5.85
2022-08-22T08:41:47.345Z,5.45
2022-08-22T08:44:42.763Z,5.38
2022-08-22T08:47:21.365Z,5.80
2022-08-22T08:50:06.032Z,5.18
2022-08-22T08:52:58.495Z,5.32
2022-08-22T08:55:32.771Z,5.50
2022-08-22T08:58:21.051Z,5.25
2022-08-22T09:00:59.342Z,4.97
2022-08-22T09:04:05.442Z,5.18
2022-08-22T09:07:09.055Z,5.05
2022-08-22T09:10:03.135Z,4.85
2022-08-22T09:13:11.843Z,4.20
2022-08-22T09:15:59.690Z,5.03
2022-08-22T09:18:48.019Z,4.18
2022-08-22T09:21:52.572Z,3.92
2022-08-22T09:24:37.892Z,4.38
2022-08-22T09:27:47.348Z,4.75
2022-08-22T09:30:19.493Z,4.93
2022-08-22T09:33:12.504Z,5.10
2022-08-22T09:36:05.173Z,3.75
2022-08-22T09:39:15.276Z,3.85
2022-08-22T09:42:08.852Z,4.07
2022-08-22T09:44:45.455Z,3.58
2022-08-22T09:47:39.357Z,3.50
2022-08-22T09:50:29.478Z,3.95
2022-08-22T09:53:29.198Z,3.40
2022-08-22T09:56:15.507Z,3.50
2022-08-22T09:59:02.652Z,3.15
2022-08-22T10:02:15.659Z,3.92
2022-08-22T10:05:04.096Z,3.22
2022-08-22T10:07:58.705Z,3.17
2022-08-22T10:10:32.070Z,3.08
2022-08-22T10:13:25.816Z,3.40
2022-08-22T10:16:17.703Z,3.35
2022-08-22T10:19:10.870Z,4.30
2022-08-22T10:22:30.186Z,3.47
2022-08-22T10:25:28.793Z,3.42
2022-08-22T10:28:01.062Z,3.38
2022-08-22T10:30:51.816Z,3.45
2022-08-22T10:33:24.443Z,3.42
2022-08-22T10:35:51.061Z,3.20
2022-08-22T10:38:47.060Z,3.00
2022-08-22T10:41:19.681Z,3.08
2022-08-22T10:44:01.505Z,3.17
2022-08-22T10:46:51.377Z,3.60
2022-08-22T10:49:36.838Z,3.33
2022-08-22T10:52:15.623Z,3.42
2022-08-22T10:54:56.340Z,3.55
2022-08-22T10:57:53.936Z,2.90
2022-08-22T11:00:51.477Z,3.25
2022-08-22T11:03:32.950Z,2.60
2022-08-22T11:06:06.156Z,3.13
2022-08-22T11:08:54.455Z,3.33
2022-08-22T11:11:39.235Z,2.80
2022-08-22T11:14:47.689Z,2.80
2022-08-22T11:17:54.231Z,3.00
2022-08-22T11:20:50.223Z,2.58
2022-08-22T11:23:52.234Z,3.10
2022-08-22T11:26:54.900Z,2.53
2022-08-22T11:29:58.851Z,2.85
2022-08-22T11:32:48.948Z,2.75
2022-08-22T11:35:24.136Z,2.95
2022-08-22T11:38:03.078Z,3.22
2022-08-22T11:40:40.935Z,2.70
2022-08-22T11:43:41.247Z,2.95
2022-08-22T11:46:27.204Z,3.10
2022-08-22T11:49:06.275Z,2.88
2022-08-22T11:51:41.864Z,2.55
2022-08-22T11:54:30.978Z,2.65
2022-08-22T11:57:08.883Z,2.75
2022-08-22T11:59:50.730Z,2.33
2022-08-22T12:02:53.063Z,2.25
2022-08-22T12:05:24.585Z,2.35
2022-08-22T12:08:03.627Z,3.22
2022-08-22T12:10:42.087Z,2.70
2022-08-22T12:13:34.885Z,2.75
2022-08-22T12:16:02.053Z,2.50
2022-08-22T12:18:47.708Z,2.92
2022-08-22T12:21:33.152Z,2.67
2022-08-22T12:24:27.041Z,3.10
2022-08-22T12:27:29.711Z,2.75
2022-08-22T12:30:18.259Z,2.72
2022-08-22T12:32:57.076Z,2.67
2022-08-22T12:35:42.464Z,2.47
2022-08-22T12:38:31.271Z,2.72
2022-08-22T12:43:54.182Z,2.53
2022-08-22T12:46:54.064Z,2.78
2022-08-22T12:49:30.300Z,2.67
2022-08-22T12:52:08.418Z,2.55
2022-08-22T12:55:10.723Z,2.70
2022-08-22T12:57:55.791Z,2.92
2022-08-22T13:00:38.014Z,3.25
2022-08-22T13:03:24.276Z,2.70
2022-08-22T13:05:57.082Z,2.42
2022-08-22T13:08:40.997Z,2.50
2022-08-22T13:11:23.072Z,2.50
2022-08-22T13:13:57.234Z,2.63
2022-08-22T13:16:33.931Z,2.35
2022-08-22T13:19:18.055Z,2.42
2022-08-22T13:21:57.045Z,2.55
2022-08-22T13:24:51.713Z,2.42
2022-08-22T13:27:40.230Z,2.33
2022-08-22T13:30:26.157Z,2.70
2022-08-22T13:32:56.540Z,2.50
2022-08-22T13:35:33.677Z,2.33
2022-08-22T13:38:12.235Z,2.10
2022-08-22T13:40:43.715Z,2.40
2022-08-22T13:43:13.726Z,2.60
2022-08-22T13:45:49.982Z,2.65
2022-08-22T13:48:16.715Z,2.47
2022-08-22T13:51:09.685Z,2.25
2022-08-22T13:53:50.080Z,2.58
2022-08-22T13:56:56.221Z,2.50
2022-08-22T13:59:51.027Z,2.53
2022-08-22T14:02:25.152Z,2.42
2022-08-22T14:05:04.911Z,2.58
2022-08-22T14:07:59.601Z,2.63
2022-08-22T14:10:33.748Z,2.35
2022-08-22T14:13:00.418Z,2.28
2022-08-22T14:15:44.961Z,2.20
2022-08-22T14:18:18.548Z,2.15
2022-08-22T14:20:47.634Z,2.30
2022-08-22T14:23:27.107Z,1.90
2022-08-22T14:25:55.410Z,2.00
2022-08-22T14:28:30.007Z,2.22
2022-08-22T14:31:08.315Z,2.20
2022-08-22T14:33:39.874Z,2.40
2022-08-22T14:39:05.165Z,2.20
2022-08-22T14:41:52.578Z,2.50
2022-08-22T14:44:32.334Z,2.00
2022-08-22T14:47:04.776Z,1.88
2022-08-22T14:49:57.555Z,2.03
2022-08-22T14:52:33.026Z,2.30
2022-08-22T14:55:15.876Z,1.98
2022-08-22T14:58:03.490Z,2.30
2022-08-22T15:00:34.573Z,2.05
2022-08-22T15:03:09.171Z,2.03
2022-08-22T15:06:03.673Z,2.30
2022-08-22T15:08:38.764Z,2.13
2022-08-22T15:11:27.058Z,2.08
2022-08-22T15:14:13.704Z,2.00
2022-08-22T15:16:46.272Z,2.40
2022-08-22T15:19:27.952Z,2.30
2022-08-22T15:22:27.892Z,2.08
2022-08-22T15:25:04.079Z,2.10
2022-08-22T15:27:35.957Z,2.28
2022-08-22T15:30:07.473Z,2.05
2022-08-22T15:32:48.873Z,2.40
2022-08-22T15:35:31.446Z,2.40
2022-08-22T15:38:08.359Z,2.13
2022-08-22T15:40:44.061Z,2.10
2022-08-22T15:43:22.437Z,2.10
2022-08-22T15:45:53.347Z,1.88
2022-08-22T15:48:33.572Z,2.22
2022-08-22T15:51:31.012Z,1.98
2022-08-22T15:54:16.253Z,2.25
2022-08-22T15:57:09.919Z,2.33
2022-08-22T15:59:53.284Z,1.98
2022-08-22T16:02:27.081Z,2.00
2022-08-22T16:05:08.735Z,2.22
2022-08-22T16:07:43.715Z,2.15
2022-08-22T16:10:33.742Z,1.83
2022-08-22T16:13:12.396Z,2.40
2022-08-22T16:15:52.649Z,2.20
2022-08-22T16:18:39.622Z,2.47
2022-08-22T16:21:16.572Z,2.05
2022-08-22T16:23:56.380Z,1.83
2022-08-22T16:26:29.221Z,1.90
2022-08-22T16:29:15.047Z,2.20
2022-08-22T16:31:44.542Z,2.25
2022-08-22T16:34:17.653Z,2.50
2022-08-22T16:36:47.289Z,2.40
2022-08-22T16:39:41.334Z,2.20
2022-08-22T16:42:21.884Z,1.92
2022-08-22T16:45:05.393Z,1.70
2022-08-22T16:47:36.202Z,2.50
2022-08-22T16:50:23.920Z,2.20
2022-08-22T16:53:28.860Z,1.95
2022-08-22T16:59:28.651Z,2.30
2022-08-22T17:02:27.629Z,2.25
2022-08-22T17:05:03.250Z,2.40
2022-08-22T17:08:06.423Z,1.85
2022-08-22T17:10:38.998Z,2.08
2022-08-22T17:13:26.548Z,2.53
2022-08-22T17:16:21.371Z,2.45
2022-08-22T17:19:18.815Z,2.45
2022-08-22T17:21:57.011Z,2.50
2022-08-22T17:24:48.579Z,2.47
2022-08-22T17:27:28.783Z,2.90
2022-08-22T17:29:57.959Z,2.65
2022-08-22T17:32:34.672Z,2.53
2022-08-22T17:35:20.744Z,2.65
2022-08-22T17:38:13.908Z,2.65
2022-08-22T17:40:57.943Z,2.75
2022-08-22T17:43:48.756Z,2.67
2022-08-22T17:46:23.157Z,2.38
2022-08-22T17:49:15.494Z,2.47
2022-08-22T17:52:22.045Z,3.10
2022-08-22T17:54:56.591Z,2.50
2022-08-22T17:57:23.235Z,2.40
2022-08-22T17:59:55.820Z,2.60
2022-08-22T18:02:28.105Z,2.60
2022-08-22T18:05:07.559Z,2.78
2022-08-22T18:07:59.282Z,2.92
2022-08-22T18:10:46.465Z,2.92
2022-08-22T18:13:34.825Z,2.80
2022-08-22T18:16:24.457Z,2.67
2022-08-22T18:19:15.206Z,2.53
2022-08-22T18:21:53.503Z,3.05
2022-08-22T18:24:38.104Z,2.72
2022-08-22T18:27:34.098Z,2.35
2022-08-22T18:30:17.010Z,2.22
2022-08-22T18:32:52.465Z,2.47
2022-08-22T18:35:23.110Z,2.95
2022-08-22T18:38:00.449Z,3.10
2022-08-22T18:40:50.124Z,2.70
2022-08-22T18:43:24.019Z,2.47
2022-08-22T18:45:50.808Z,2.40
2022-08-22T18:48:26.134Z,2.80
2022-08-22T18:51:01.300Z,2.70
2022-08-22T18:53:48.652Z,2.72
2022-08-22T18:56:36.791Z,2.72
2022-08-22T18:59:19.932Z,2.53
2022-08-22T19:01:51.778Z,2.88
2022-08-22T19:04:30.933Z,2.70
2022-08-22T19:07:32.325Z,2.50
2022-08-22T19:10:19.736Z,2.80
2022-08-22T19:13:25.029Z,3.08
2022-08-22T19:16:05.583Z,3.40
2022-08-22T19:18:37.996Z,2.47
2022-08-22T19:24:27.568Z,2.67
2022-08-22T19:27:18.920Z,2.90
2022-08-22T19:29:45.539Z,2.80
2022-08-22T19:32:44.279Z,3.03
2022-08-22T19:35:26.687Z,3.00
2022-08-22T19:37:59.629Z,2.65
2022-08-22T19:40:44.800Z,2.85
2022-08-22T19:46:03.672Z,3.20
2022-08-22T19:48:44.477Z,3.10
2022-08-22T19:51:13.871Z,3.50
2022-08-22T19:54:06.446Z,2.80
2022-08-22T19:56:50.969Z,3.20
2022-08-22T19:59:40.754Z,3.20
2022-08-22T20:02:41.971Z,3.10
2022-08-22T20:05:31.470Z,2.95
2022-08-22T20:08:24.940Z,3.40
2022-08-22T20:11:02.982Z,3.00
2022-08-22T20:13:35.282Z,3.33
2022-08-22T20:16:19.310Z,3.50
2022-08-22T20:19:07.647Z,3.17
2022-08-22T20:21:57.975Z,3.10
2022-08-22T20:24:41.944Z,3.33
2022-08-22T20:27:23.947Z,3.40
2022-08-22T20:30:03.925Z,4.30
2022-08-22T20:32:32.340Z,4.53
2022-08-22T20:35:02.560Z,4.50
2022-08-22T20:38:03.170Z,5.72
2022-08-22T20:40:57.071Z,5.97
2022-08-22T20:43:36.872Z,5.43
2022-08-22T20:46:26.751Z,4.93
2022-08-22T20:48:55.743Z,4.57
2022-08-22T20:51:29.595Z,4.95
2022-08-22T20:54:10.136Z,4.03
2022-08-22T20:56:53.494Z,3.83
2022-08-22T20:59:38.238Z,3.60
2022-08-22T21:02:15.793Z,4.38
2022-08-22T21:04:46.782Z,4.05
2022-08-22T21:07:39.774Z,3.72
2022-08-22T21:10:34.475Z,3.72
2022-08-22T21:13:09.835Z,3.80
2022-08-22T21:16:07.888Z,3.85
2022-08-22T21:21:08.156Z,4.25
2022-08-22T21:23:47.426Z,3.75
2022-08-22T21:26:25.564Z,4.43
2022-08-22T21:29:12.972Z,4.22
2022-08-22T21:31:52.404Z,4.18
2022-08-22T21:34:26.372Z,4.32
2022-08-22T21:37:02.207Z,4.05
2022-08-22T21:39:34.164Z,4.18
2022-08-22T21:42:00.782Z,4.10
2022-08-22T21:45:00.201Z,4.15
2022-08-22T21:47:30.474Z,4.63
2022-08-22T21:50:01.016Z,4.00
2022-08-22T21:52:28.771Z,4.28
2022-08-22T21:55:11.848Z,4.72
2022-08-22T21:57:38.823Z,4.15
2022-08-22T22:00:32.713Z,4.35
2022-08-22T22:03:03.081Z,3.80
2022-08-22T22:05:29.780Z,4.25
2022-08-22T22:07:56.549Z,3.45
2022-08-22T22:10:23.375Z,4.20
2022-08-22T22:12:53.287Z,4.00
2022-08-22T22:15:23.650Z,4.07
2022-08-22T22:17:50.507Z,4.50
2022-08-22T22:20:18.479Z,4.20
2022-08-22T22:22:46.913Z,4.28
2022-08-22T22:25:39.651Z,4.35
2022-08-22T22:28:03.683Z,4.00
2022-08-22T22:30:30.357Z,3.88
2022-08-22T22:32:57.842Z,4.50
2022-08-22T22:35:24.758Z,4.35
2022-08-22T22:37:51.448Z,3.65
2022-08-22T22:40:18.702Z,4.60
2022-08-22T22:42:45.365Z,4.35
2022-08-22T22:45:12.129Z,4.93
2022-08-22T22:47:38.926Z,4.60
2022-08-22T22:50:06.524Z,4.28
2022-08-22T22:52:33.224Z,4.45
2022-08-22T22:55:05.820Z,4.70
2022-08-22T22:57:32.482Z,4.40
2022-08-22T23:00:10.900Z,4.38
2022-08-22T23:02:37.711Z,4.90
2022-08-22T23:05:05.461Z,5.47
2022-08-22T23:07:33.848Z,5.25
2022-08-22T23:10:01.469Z,4.80
2022-08-22T23:12:29.007Z,4.72
2022-08-22T23:14:55.708Z,4.55
2022-08-22T23:17:22.887Z,5.50
2022-08-22T23:19:51.163Z,4.82
2022-08-22T23:22:18.111Z,4.90
2022-08-22T23:24:45.051Z,4.90
2022-08-22T23:27:12.303Z,4.70
2022-08-22T23:29:43.271Z,5.32
2022-08-22T23:32:12.014Z,4.50
2022-08-22T23:34:45.770Z,4.32
2022-08-22T23:37:18.338Z,4.68
2022-08-22T23:39:45.273Z,5.03
2022-08-22T23:42:13.243Z,4.68
2022-08-22T23:44:41.887Z,5.18
2022-08-22T23:47:10.102Z,5.07
2022-08-22T23:49:39.176Z,4.90
2022-08-22T23:52:06.915Z,5.05
2022-08-22T23:54:34.142Z,4.80
2022-08-22T23:57:02.972Z,5.45
2022-08-22T23:59:42.341Z,5.43
